createdAt,value
2018-02-17T00:00:18.660Z,-0.90
2018-02-17T00:01:21.154Z,-0.90
2018-02-17T00:02:23.661Z,-0.90
2018-02-17T00:03:26.166Z,-0.90
2018-02-17T00:04:28.735Z,-0.90
2018-02-17T00:05:31.528Z,-0.90
2018-02-17T00:06:34.008Z,-0.90
2018-02-17T00:07:36.558Z,-0.90
2018-02-17T00:08:39.100Z,-0.90
2018-02-17T00:09:41.597Z,-1.00
2018-02-17T00:10:44.072Z,-1.00
2018-02-17T00:11:47.296Z,-1.00
2018-02-17T00:12:50.778Z,-1.00
2018-02-17T00:13:54.043Z,-1.00
2018-02-17T00:14:56.567Z,-1.00
2018-02-17T00:15:59.920Z,-1.00
2018-02-17T00:17:02.379Z,-1.00
2018-02-17T00:18:05.184Z,-1.00
2018-02-17T00:19:07.724Z,-1.10
2018-02-17T00:20:11.077Z,-1.10
2018-02-17T00:21:13.647Z,-1.10
2018-02-17T00:22:16.880Z,-1.20
2018-02-17T00:23:20.106Z,-1.20
2018-02-17T00:24:23.032Z,-1.20
2018-02-17T00:25:25.531Z,-1.20
2018-02-17T00:26:28.028Z,-1.20
2018-02-17T00:27:30.549Z,-1.20
2018-02-17T00:28:33.810Z,-1.20
2018-02-17T00:29:36.381Z,-1.20
2018-02-17T00:30:39.696Z,-1.20
2018-02-17T00:31:42.201Z,-1.20
2018-02-17T00:32:44.711Z,-1.20
2018-02-17T00:33:47.996Z,-1.30
2018-02-17T00:34:50.496Z,-1.30
2018-02-17T00:35:52.982Z,-1.30
2018-02-17T00:36:56.281Z,-1.30
2018-02-17T00:37:58.741Z,-1.20
2018-02-17T00:39:01.231Z,-1.20
2018-02-17T00:40:03.710Z,-1.30
2018-02-17T00:41:06.268Z,-1.30
2018-02-17T00:42:08.770Z,-1.30
2018-02-17T00:43:12.170Z,-1.30
2018-02-17T00:44:14.678Z,-1.30
2018-02-17T00:45:17.208Z,-1.30
2018-02-17T00:46:19.785Z,-1.30
2018-02-17T00:47:23.796Z,-1.30
2018-02-17T00:48:26.296Z,-1.30
2018-02-17T00:49:28.784Z,-1.30
2018-02-17T00:50:31.290Z,-1.30
2018-02-17T00:51:33.817Z,-1.30
2018-02-17T00:52:36.304Z,-1.30
2018-02-17T00:53:38.804Z,-1.30
2018-02-17T00:54:42.053Z,-1.30
2018-02-17T00:55:44.599Z,-1.20
2018-02-17T00:56:47.840Z,-1.30
2018-02-17T00:57:51.075Z,-1.20
2018-02-17T00:58:54.327Z,-1.20
2018-02-17T00:59:57.554Z,-1.20
2018-02-17T01:01:00.862Z,-1.20
2018-02-17T01:02:03.350Z,-1.20
2018-02-17T01:03:06.735Z,-1.20
2018-02-17T01:04:09.205Z,-1.20
2018-02-17T01:05:12.459Z,-1.20
2018-02-17T01:06:15.883Z,-1.20
2018-02-17T01:07:19.186Z,-1.20
2018-02-17T01:08:21.673Z,-1.20
2018-02-17T01:09:24.163Z,-1.20
2018-02-17T01:10:27.414Z,-1.20
2018-02-17T01:11:29.914Z,-1.20
2018-02-17T01:12:33.922Z,-1.20
2018-02-17T01:13:37.164Z,-1.20
2018-02-17T01:14:41.043Z,-1.20
2018-02-17T01:15:43.559Z,-1.20
2018-02-17T01:16:46.057Z,-1.20
2018-02-17T01:17:48.535Z,-1.20
2018-02-17T01:18:51.019Z,-1.20
2018-02-17T01:19:54.274Z,-1.10
2018-02-17T01:20:57.583Z,-1.10
2018-02-17T01:22:00.051Z,-1.10
2018-02-17T01:23:02.594Z,-1.10
2018-02-17T01:24:05.102Z,-1.10
2018-02-17T01:25:07.656Z,-1.00
2018-02-17T01:26:10.414Z,-1.00
2018-02-17T01:27:12.925Z,-1.00
2018-02-17T01:28:16.222Z,-1.00
2018-02-17T01:29:19.520Z,-1.00
2018-02-17T01:30:22.819Z,-1.00
2018-02-17T01:31:25.334Z,-1.10
2018-02-17T01:32:28.597Z,-1.00
2018-02-17T01:33:31.065Z,-1.00
2018-02-17T01:34:33.579Z,-1.00
2018-02-17T01:35:36.390Z,-1.00
2018-02-17T01:36:38.875Z,-1.00
2018-02-17T01:37:42.119Z,-1.00
2018-02-17T01:38:45.426Z,-1.00
2018-02-17T01:39:47.918Z,-1.00
2018-02-17T01:40:50.491Z,-1.00
2018-02-17T01:41:52.956Z,-1.00
2018-02-17T01:42:55.486Z,-1.00
2018-02-17T01:43:57.971Z,-1.00
2018-02-17T01:45:00.624Z,-0.90
2018-02-17T01:46:03.878Z,-0.90
2018-02-17T01:47:06.361Z,-0.90
2018-02-17T01:48:08.830Z,-0.80
2018-02-17T01:49:11.306Z,-0.80
2018-02-17T01:50:25.787Z,-0.80
2018-02-17T01:51:28.286Z,-0.80
2018-02-17T01:52:30.917Z,-0.80
2018-02-17T01:53:33.468Z,-0.80
2018-02-17T01:54:35.959Z,-0.80
2018-02-17T01:55:39.445Z,-0.80
2018-02-17T01:56:41.946Z,-0.80
2018-02-17T01:57:44.644Z,-0.80
2018-02-17T01:58:47.939Z,-0.70
2018-02-17T01:59:50.462Z,-0.70
2018-02-17T02:00:52.966Z,-0.60
2018-02-17T02:01:56.321Z,-0.60
2018-02-17T02:02:58.851Z,-0.60
2018-02-17T02:04:01.382Z,-0.60
2018-02-17T02:05:04.711Z,-0.60
2018-02-17T02:06:07.187Z,-0.60
2018-02-17T02:07:09.771Z,-0.50
2018-02-17T02:08:12.323Z,-0.50
2018-02-17T02:09:14.792Z,-0.50
2018-02-17T02:10:18.061Z,-0.40
2018-02-17T02:11:20.529Z,-0.40
2018-02-17T02:12:23.918Z,-0.20
2018-02-17T02:13:26.386Z,-0.30
2018-02-17T02:14:28.975Z,-0.20
2018-02-17T02:15:31.456Z,-0.20
2018-02-17T02:16:34.688Z,-0.10
2018-02-17T02:17:37.316Z,-0.10
2018-02-17T02:18:39.770Z,-0.10
2018-02-17T02:19:43.035Z,-0.10
2018-02-17T02:20:45.514Z,-0.10
2018-02-17T02:21:48.046Z,0.00
2018-02-17T02:22:52.076Z,0.00
2018-02-17T02:23:54.903Z,0.00
2018-02-17T02:24:57.426Z,0.00
2018-02-17T02:25:59.911Z,0.00
2018-02-17T02:27:03.147Z,0.10
2018-02-17T02:28:06.428Z,0.10
2018-02-17T02:29:08.898Z,0.00
2018-02-17T02:30:11.763Z,0.10
2018-02-17T02:31:14.990Z,0.20
2018-02-17T02:32:18.239Z,0.20
2018-02-17T02:33:20.755Z,0.20
2018-02-17T02:34:23.569Z,0.20
2018-02-17T02:35:26.254Z,0.20
2018-02-17T02:36:28.812Z,0.20
2018-02-17T02:37:31.283Z,0.30
2018-02-17T02:38:34.586Z,0.30
2018-02-17T02:39:37.050Z,0.20
2018-02-17T02:40:40.283Z,0.20
2018-02-17T02:41:42.746Z,0.20
2018-02-17T02:42:45.223Z,0.20
2018-02-17T02:43:48.510Z,0.30
2018-02-17T02:44:51.055Z,0.30
2018-02-17T02:45:53.526Z,0.30
2018-02-17T02:46:56.779Z,0.30
2018-02-17T02:48:00.043Z,0.30
2018-02-17T02:49:02.550Z,0.30
2018-02-17T02:50:05.800Z,0.30
2018-02-17T02:51:09.035Z,0.30
2018-02-17T02:52:12.314Z,0.30
2018-02-17T02:53:14.774Z,0.30
2018-02-17T02:54:17.260Z,0.30
2018-02-17T02:55:19.783Z,0.30
2018-02-17T02:56:22.810Z,0.40
2018-02-17T02:57:25.302Z,0.40
2018-02-17T02:58:28.532Z,0.40
2018-02-17T02:59:30.999Z,0.40
2018-02-17T03:00:33.522Z,0.40
2018-02-17T03:01:35.989Z,0.40
2018-02-17T03:02:38.466Z,0.50
2018-02-17T03:03:40.960Z,0.50
2018-02-17T03:04:43.469Z,0.50
2018-02-17T03:05:46.009Z,0.50
2018-02-17T03:06:48.600Z,0.60
2018-02-17T03:07:51.105Z,0.60
2018-02-17T03:08:54.409Z,0.60
2018-02-17T03:09:56.968Z,0.60
2018-02-17T03:11:00.199Z,0.60
2018-02-17T03:12:03.469Z,0.60
2018-02-17T03:13:05.925Z,0.60
2018-02-17T03:14:08.390Z,0.60
2018-02-17T03:15:11.850Z,0.60
2018-02-17T03:16:14.319Z,0.60
2018-02-17T03:17:16.808Z,0.60
2018-02-17T03:18:19.374Z,0.60
2018-02-17T03:19:22.687Z,0.70
2018-02-17T03:20:25.196Z,0.70
2018-02-17T03:21:28.418Z,0.70
2018-02-17T03:22:31.673Z,0.70
2018-02-17T03:23:34.910Z,0.70
2018-02-17T03:24:38.205Z,0.70
2018-02-17T03:25:40.727Z,0.70
2018-02-17T03:26:43.274Z,0.70
2018-02-17T03:27:45.796Z,0.70
2018-02-17T03:28:48.299Z,0.70
2018-02-17T03:29:50.812Z,0.70
2018-02-17T03:30:53.396Z,0.70
2018-02-17T03:31:56.012Z,0.70
2018-02-17T03:32:58.508Z,0.70
2018-02-17T03:34:01.028Z,0.70
2018-02-17T03:35:03.515Z,0.70
2018-02-17T03:36:06.746Z,0.70
2018-02-17T03:37:09.297Z,0.70
2018-02-17T03:38:12.528Z,0.70
2018-02-17T03:39:15.768Z,0.70
2018-02-17T03:40:19.013Z,0.70
2018-02-17T03:41:22.278Z,0.80
2018-02-17T03:42:24.799Z,0.70
2018-02-17T03:43:27.258Z,0.80
2018-02-17T03:44:29.727Z,0.80
2018-02-17T03:45:33.010Z,0.70
2018-02-17T03:46:35.473Z,0.70
2018-02-17T03:47:39.476Z,0.70
2018-02-17T03:48:41.967Z,0.80
2018-02-17T03:49:44.422Z,0.80
2018-02-17T03:50:46.917Z,0.80
2018-02-17T03:51:49.460Z,0.80
2018-02-17T03:52:52.714Z,0.80
2018-02-17T03:53:55.281Z,0.80
2018-02-17T03:54:57.775Z,0.80
2018-02-17T03:56:00.250Z,0.70
2018-02-17T03:57:02.708Z,0.70
2018-02-17T03:58:05.971Z,0.80
2018-02-17T03:59:08.449Z,0.80
2018-02-17T04:00:11.067Z,0.80
2018-02-17T04:01:13.630Z,0.80
2018-02-17T04:02:16.140Z,0.80
2018-02-17T04:03:19.553Z,0.80
2018-02-17T04:04:22.026Z,0.80
2018-02-17T04:05:25.250Z,0.80
2018-02-17T04:06:28.494Z,0.80
2018-02-17T04:07:31.718Z,0.80
2018-02-17T04:08:34.224Z,0.70
2018-02-17T04:09:36.819Z,0.80
2018-02-17T04:10:39.292Z,0.80
2018-02-17T04:11:42.581Z,0.80
2018-02-17T04:12:45.074Z,0.70
2018-02-17T04:13:47.575Z,0.80
2018-02-17T04:14:50.075Z,0.80
2018-02-17T04:15:52.540Z,0.80
2018-02-17T04:16:55.010Z,0.80
2018-02-17T04:17:57.546Z,0.90
2018-02-17T04:19:00.046Z,0.80
2018-02-17T04:20:03.314Z,0.80
2018-02-17T04:21:05.855Z,0.80
2018-02-17T04:22:08.348Z,0.80
2018-02-17T04:23:10.843Z,0.80
2018-02-17T04:24:14.144Z,0.90
2018-02-17T04:25:16.658Z,0.90
2018-02-17T04:26:19.134Z,0.90
2018-02-17T04:27:21.601Z,0.90
2018-02-17T04:28:24.100Z,0.90
2018-02-17T04:29:27.373Z,0.90
2018-02-17T04:30:29.854Z,0.90
2018-02-17T04:31:32.350Z,0.90
2018-02-17T04:32:34.939Z,0.90
2018-02-17T04:33:37.426Z,0.90
2018-02-17T04:34:39.914Z,0.90
2018-02-17T04:35:42.424Z,0.90
2018-02-17T04:36:44.884Z,0.90
2018-02-17T04:37:47.356Z,0.90
2018-02-17T04:38:50.603Z,0.80
2018-02-17T04:39:54.682Z,0.80
2018-02-17T04:42:48.742Z,0.90
2018-02-17T04:45:44.533Z,0.90
2018-02-17T04:46:52.234Z,0.90
2018-02-17T04:48:02.398Z,0.90
2018-02-17T04:49:08.284Z,0.90
2018-02-17T04:50:31.609Z,0.90
2018-02-17T04:51:35.864Z,0.90
2018-02-17T04:52:39.864Z,0.90
2018-02-17T04:53:53.184Z,0.90
2018-02-17T04:55:14.366Z,0.90
2018-02-17T04:56:23.530Z,0.90
2018-02-17T04:57:43.812Z,0.90
2018-02-17T04:59:01.166Z,0.90
2018-02-17T05:00:04.515Z,0.90
2018-02-17T05:01:12.801Z,0.90
2018-02-17T05:02:18.523Z,0.90
2018-02-17T05:03:33.882Z,0.90
2018-02-17T05:04:39.291Z,0.90
2018-02-17T05:05:48.342Z,0.90
2018-02-17T05:07:08.679Z,0.90
2018-02-17T05:09:36.578Z,0.90
2018-02-17T05:10:39.848Z,0.90
2018-02-17T05:11:42.802Z,0.90
2018-02-17T05:12:45.299Z,0.90
2018-02-17T05:13:47.767Z,0.90
2018-02-17T05:14:50.240Z,0.90
2018-02-17T05:15:59.170Z,0.80
2018-02-17T05:17:17.516Z,0.80
2018-02-17T05:18:19.996Z,0.80
2018-02-17T05:19:28.075Z,0.90
2018-02-17T05:20:36.934Z,0.90
2018-02-17T05:21:46.057Z,0.90
2018-02-17T05:23:05.287Z,0.90
2018-02-17T05:24:22.664Z,0.90
2018-02-17T05:25:26.738Z,0.90
2018-02-17T05:26:45.921Z,0.90
2018-02-17T05:28:03.384Z,0.90
2018-02-17T05:29:06.730Z,1.00
2018-02-17T05:30:12.638Z,1.00
2018-02-17T05:31:16.615Z,0.90
2018-02-17T05:32:35.892Z,0.90
2018-02-17T05:33:43.978Z,1.00
2018-02-17T05:35:03.009Z,1.00
2018-02-17T05:36:07.886Z,1.00
2018-02-17T05:37:10.362Z,1.00
2018-02-17T05:38:14.416Z,1.00
2018-02-17T05:39:16.869Z,1.00
2018-02-17T05:40:25.808Z,1.00
2018-02-17T05:41:28.288Z,0.90
2018-02-17T05:42:33.257Z,0.90
2018-02-17T05:43:36.535Z,0.90
2018-02-17T05:44:47.581Z,0.90
2018-02-17T05:45:50.062Z,0.90
2018-02-17T05:46:53.300Z,0.90
2018-02-17T05:48:00.377Z,1.00
2018-02-17T05:49:04.439Z,1.00
2018-02-17T05:50:12.708Z,1.10
2018-02-17T05:51:15.187Z,1.10
2018-02-17T05:52:18.004Z,1.10
2018-02-17T05:53:20.519Z,1.00
2018-02-17T05:54:23.871Z,1.10
2018-02-17T05:55:26.399Z,1.00
2018-02-17T05:56:29.222Z,1.10
2018-02-17T05:57:32.495Z,1.00
2018-02-17T05:58:34.963Z,1.00
2018-02-17T05:59:37.934Z,1.00
2018-02-17T06:00:40.455Z,1.10
2018-02-17T06:01:43.290Z,1.10
2018-02-17T06:02:45.795Z,1.10
2018-02-17T06:03:49.192Z,1.00
2018-02-17T06:04:51.752Z,1.00
2018-02-17T06:05:54.251Z,1.00
2018-02-17T06:06:57.435Z,1.10
2018-02-17T06:08:00.714Z,1.10
2018-02-17T06:09:03.194Z,1.10
2018-02-17T06:10:06.475Z,1.00
2018-02-17T06:11:08.946Z,1.00
2018-02-17T06:12:11.410Z,1.00
2018-02-17T06:13:14.679Z,1.00
2018-02-17T06:14:17.141Z,1.00
2018-02-17T06:15:19.651Z,1.00
2018-02-17T06:16:22.120Z,1.00
2018-02-17T06:17:25.386Z,1.10
2018-02-17T06:18:27.871Z,1.00
2018-02-17T06:19:30.338Z,1.00
2018-02-17T06:20:32.874Z,1.10
2018-02-17T06:21:35.524Z,1.10
2018-02-17T06:22:38.004Z,1.10
2018-02-17T06:23:40.530Z,1.10
2018-02-17T06:24:43.040Z,1.10
2018-02-17T06:25:46.323Z,1.10
2018-02-17T06:26:49.203Z,1.10
2018-02-17T06:27:51.777Z,1.10
2018-02-17T06:28:54.290Z,1.20
2018-02-17T06:29:56.787Z,1.20
2018-02-17T06:31:00.084Z,1.20
2018-02-17T06:32:02.545Z,1.20
2018-02-17T06:33:05.071Z,1.20
2018-02-17T06:34:08.326Z,1.20
2018-02-17T06:35:11.550Z,1.20
2018-02-17T06:36:14.109Z,1.20
2018-02-17T06:37:16.591Z,1.20
2018-02-17T06:38:19.111Z,1.20
2018-02-17T06:39:21.583Z,1.20
2018-02-17T06:40:24.807Z,1.20
2018-02-17T06:41:27.343Z,1.10
2018-02-17T06:42:30.569Z,1.20
2018-02-17T06:43:33.046Z,1.20
2018-02-17T06:44:35.571Z,1.20
2018-02-17T06:45:38.090Z,1.20
2018-02-17T06:46:40.570Z,1.20
2018-02-17T06:47:43.295Z,1.20
2018-02-17T06:48:46.584Z,1.30
2018-02-17T06:49:49.093Z,1.30
2018-02-17T06:50:52.342Z,1.20
2018-02-17T06:51:54.882Z,1.20
2018-02-17T06:52:57.394Z,1.30
2018-02-17T06:53:59.903Z,1.30
2018-02-17T06:55:02.406Z,1.30
2018-02-17T06:56:04.920Z,1.30
2018-02-17T06:57:07.452Z,1.40
2018-02-17T06:58:09.921Z,1.40
2018-02-17T06:59:12.409Z,1.40
2018-02-17T07:00:14.867Z,1.40
2018-02-17T07:01:17.395Z,1.50
2018-02-17T07:02:19.859Z,1.50
2018-02-17T07:03:22.342Z,1.40
2018-02-17T07:04:24.865Z,1.40
2018-02-17T07:05:28.089Z,1.40
2018-02-17T07:06:31.350Z,1.40
2018-02-17T07:07:33.919Z,1.40
2018-02-17T07:08:36.382Z,1.40
2018-02-17T07:09:39.648Z,1.40
2018-02-17T07:10:42.107Z,1.40
2018-02-17T07:11:44.596Z,1.40
2018-02-17T07:12:47.085Z,1.40
2018-02-17T07:13:49.559Z,1.40
2018-02-17T07:14:52.342Z,1.40
2018-02-17T07:15:56.322Z,1.40
2018-02-17T07:16:59.687Z,1.50
2018-02-17T07:18:02.172Z,1.50
2018-02-17T07:19:04.751Z,1.50
2018-02-17T07:20:07.282Z,1.50
2018-02-17T07:21:09.769Z,1.50
2018-02-17T07:22:13.051Z,1.60
2018-02-17T07:23:15.520Z,1.50
2018-02-17T07:24:18.004Z,1.60
2018-02-17T07:25:20.474Z,1.60
2018-02-17T07:26:23.735Z,1.60
2018-02-17T07:27:27.012Z,1.60
2018-02-17T07:28:29.505Z,1.60
2018-02-17T07:29:32.734Z,1.70
2018-02-17T07:30:35.977Z,1.70
2018-02-17T07:31:39.237Z,1.70
2018-02-17T07:32:42.917Z,1.70
2018-02-17T07:33:45.398Z,1.70
2018-02-17T07:34:48.635Z,1.70
2018-02-17T07:35:51.850Z,1.70
2018-02-17T07:36:54.438Z,1.70
2018-02-17T07:37:56.921Z,1.70
2018-02-17T07:38:59.507Z,1.70
2018-02-17T07:40:02.018Z,1.70
2018-02-17T07:41:05.283Z,1.70
2018-02-17T07:42:07.780Z,1.70
2018-02-17T07:43:10.234Z,1.70
2018-02-17T07:44:12.772Z,1.70
2018-02-17T07:45:15.318Z,1.70
2018-02-17T07:46:17.805Z,1.70
2018-02-17T07:47:20.304Z,1.70
2018-02-17T07:48:22.878Z,1.70
2018-02-17T07:49:25.345Z,1.70
2018-02-17T07:50:28.639Z,1.70
2018-02-17T07:51:31.151Z,1.70
2018-02-17T07:52:34.343Z,1.80
2018-02-17T07:53:36.804Z,1.80
2018-02-17T07:54:39.280Z,1.80
2018-02-17T07:55:41.797Z,1.80
2018-02-17T07:56:44.418Z,1.80
2018-02-17T07:57:46.910Z,1.80
2018-02-17T07:58:49.429Z,1.80
2018-02-17T07:59:51.954Z,1.80
2018-02-17T08:00:54.487Z,1.80
2018-02-17T08:01:56.972Z,1.80
2018-02-17T08:03:00.233Z,1.90
2018-02-17T08:04:03.495Z,1.90
2018-02-17T08:05:05.987Z,1.80
2018-02-17T08:06:09.273Z,1.90
2018-02-17T08:07:11.764Z,1.90
2018-02-17T08:08:15.023Z,2.00
2018-02-17T08:09:17.489Z,1.90
2018-02-17T08:10:19.970Z,2.00
2018-02-17T08:11:22.502Z,2.00
2018-02-17T08:12:25.048Z,2.00
2018-02-17T08:13:27.590Z,2.00
2018-02-17T08:14:30.101Z,2.10
2018-02-17T08:15:32.605Z,2.10
2018-02-17T08:16:35.140Z,2.10
2018-02-17T08:17:37.626Z,2.10
2018-02-17T08:18:40.225Z,2.10
2018-02-17T08:19:42.755Z,2.10
2018-02-17T08:20:45.239Z,2.10
2018-02-17T08:21:47.758Z,2.10
2018-02-17T08:22:50.264Z,2.20
2018-02-17T08:23:52.781Z,2.20
2018-02-17T08:24:55.602Z,2.20
2018-02-17T08:25:58.086Z,2.20
2018-02-17T08:27:00.582Z,2.30
2018-02-17T08:28:03.834Z,2.30
2018-02-17T08:29:06.315Z,2.30
2018-02-17T08:30:08.934Z,2.30
2018-02-17T08:31:11.395Z,2.40
2018-02-17T08:32:14.724Z,2.40
2018-02-17T08:33:17.987Z,2.40
2018-02-17T08:34:20.504Z,2.50
2018-02-17T08:35:23.079Z,2.40
2018-02-17T08:36:25.616Z,2.40
2018-02-17T08:37:28.118Z,2.40
2018-02-17T08:38:30.672Z,2.40
2018-02-17T08:39:33.200Z,2.50
2018-02-17T08:40:35.738Z,2.50
2018-02-17T08:41:38.219Z,2.50
2018-02-17T08:42:41.142Z,2.50
2018-02-17T08:43:43.654Z,2.50
2018-02-17T08:44:46.142Z,2.60
2018-02-17T08:45:48.686Z,2.60
2018-02-17T08:46:51.970Z,2.60
2018-02-17T08:47:54.490Z,2.50
2018-02-17T08:48:56.963Z,2.50
2018-02-17T08:49:59.430Z,2.60
2018-02-17T08:51:02.005Z,2.60
2018-02-17T08:52:04.471Z,2.70
2018-02-17T08:53:07.778Z,2.70
2018-02-17T08:54:10.247Z,2.70
2018-02-17T08:55:13.483Z,2.70
2018-02-17T08:56:16.728Z,2.80
2018-02-17T08:57:19.987Z,2.80
2018-02-17T08:58:22.512Z,2.80
2018-02-17T08:59:24.987Z,2.80
2018-02-17T09:00:27.466Z,2.70
2018-02-17T09:01:29.928Z,2.70
2018-02-17T09:02:32.392Z,2.80
2018-02-17T09:03:36.462Z,2.80
2018-02-17T09:04:38.965Z,2.70
2018-02-17T09:05:41.728Z,2.80
2018-02-17T09:06:44.193Z,2.90
2018-02-17T09:07:46.654Z,2.90
2018-02-17T09:08:49.904Z,2.90
2018-02-17T09:09:53.155Z,2.90
2018-02-17T09:10:55.682Z,2.90
2018-02-17T09:11:58.112Z,2.90
2018-02-17T09:13:00.661Z,2.90
2018-02-17T09:14:03.136Z,2.90
2018-02-17T09:15:06.391Z,2.90
2018-02-17T09:16:08.875Z,2.80
2018-02-17T09:17:11.337Z,2.90
2018-02-17T09:18:14.673Z,2.90
2018-02-17T09:19:17.930Z,3.00
2018-02-17T09:20:21.167Z,3.00
2018-02-17T09:21:24.719Z,3.00
2018-02-17T09:22:27.187Z,3.00
2018-02-17T09:23:29.684Z,3.00
2018-02-17T09:24:32.147Z,3.00
2018-02-17T09:25:34.610Z,3.10
2018-02-17T09:26:37.898Z,3.10
2018-02-17T09:27:40.367Z,3.10
2018-02-17T09:28:42.860Z,3.20
2018-02-17T09:29:45.343Z,3.20
2018-02-17T09:30:47.804Z,3.20
2018-02-17T09:31:50.315Z,3.20
2018-02-17T09:32:52.923Z,3.20
2018-02-17T09:33:55.409Z,3.20
2018-02-17T09:34:59.860Z,3.20
2018-02-17T09:36:02.361Z,3.20
2018-02-17T09:37:04.905Z,3.20
2018-02-17T09:38:07.405Z,3.20
2018-02-17T09:39:09.908Z,3.20
2018-02-17T09:40:13.355Z,3.30
2018-02-17T09:41:16.593Z,3.20
2018-02-17T09:42:19.902Z,3.30
2018-02-17T09:43:22.378Z,3.30
2018-02-17T09:44:24.915Z,3.30
2018-02-17T09:45:28.165Z,3.40
2018-02-17T09:46:30.689Z,3.40
2018-02-17T09:47:33.171Z,3.40
2018-02-17T09:48:36.447Z,3.40
2018-02-17T09:49:38.985Z,3.40
2018-02-17T09:50:41.470Z,3.40
2018-02-17T09:51:44.734Z,3.50
2018-02-17T09:52:47.253Z,3.50
2018-02-17T09:53:51.058Z,3.60
2018-02-17T09:54:53.655Z,3.50
2018-02-17T09:55:56.243Z,3.60
2018-02-17T09:56:59.523Z,3.60
2018-02-17T09:58:02.063Z,3.60
2018-02-17T09:59:04.535Z,3.60
2018-02-17T10:00:07.777Z,3.70
2018-02-17T10:01:10.754Z,3.70
2018-02-17T10:02:13.244Z,3.70
2018-02-17T10:03:16.485Z,3.70
2018-02-17T10:04:19.756Z,3.70
2018-02-17T10:05:22.314Z,3.70
2018-02-17T10:06:24.835Z,3.70
2018-02-17T10:07:27.314Z,3.70
2018-02-17T10:08:30.606Z,3.80
2018-02-17T10:09:33.102Z,3.80
2018-02-17T10:10:35.675Z,3.80
2018-02-17T10:11:38.175Z,3.80
2018-02-17T10:12:40.691Z,3.70
2018-02-17T10:13:43.177Z,3.80
2018-02-17T10:14:46.559Z,3.80
2018-02-17T10:15:49.084Z,3.80
2018-02-17T10:16:51.562Z,3.90
2018-02-17T10:17:54.036Z,3.80
2018-02-17T10:18:56.532Z,3.90
2018-02-17T10:19:59.075Z,3.90
2018-02-17T10:21:01.597Z,3.90
2018-02-17T10:22:04.117Z,4.00
2018-02-17T10:23:07.390Z,4.00
2018-02-17T10:24:09.903Z,4.00
2018-02-17T10:25:12.400Z,4.00
2018-02-17T10:26:15.666Z,4.10
2018-02-17T10:27:18.166Z,4.10
2018-02-17T10:28:21.868Z,4.20
2018-02-17T10:29:24.398Z,4.20
2018-02-17T10:30:26.925Z,4.30
2018-02-17T10:31:29.424Z,4.40
2018-02-17T10:32:32.214Z,4.50
2018-02-17T10:33:35.454Z,4.50
2018-02-17T10:34:38.033Z,4.50
2018-02-17T10:35:40.547Z,4.50
2018-02-17T10:36:43.069Z,4.60
2018-02-17T10:37:46.355Z,4.70
2018-02-17T10:38:48.828Z,4.70
2018-02-17T10:39:52.086Z,4.70
2018-02-17T10:40:54.671Z,4.70
2018-02-17T10:41:57.164Z,4.60
2018-02-17T10:42:59.681Z,4.50
2018-02-17T10:44:02.176Z,4.40
2018-02-17T10:45:05.439Z,4.30
2018-02-17T10:46:07.960Z,4.30
2018-02-17T10:47:10.567Z,4.20
2018-02-17T10:48:13.929Z,4.00
2018-02-17T10:49:16.463Z,4.10
2018-02-17T10:50:19.716Z,4.00
2018-02-17T10:51:22.212Z,3.90
2018-02-17T10:52:25.624Z,3.90
2018-02-17T10:53:28.122Z,3.90
2018-02-17T10:54:30.715Z,4.00
2018-02-17T10:55:37.954Z,4.10
2018-02-17T10:56:40.475Z,4.00
2018-02-17T10:57:42.957Z,4.10
2018-02-17T10:58:45.540Z,4.10
2018-02-17T10:59:48.129Z,4.10
2018-02-17T11:00:50.745Z,4.00
2018-02-17T11:01:53.267Z,4.10
2018-02-17T11:02:56.033Z,4.10
2018-02-17T11:03:58.622Z,4.10
2018-02-17T11:05:01.156Z,4.20
2018-02-17T11:06:03.848Z,4.20
2018-02-17T11:07:06.331Z,4.30
2018-02-17T11:08:09.612Z,4.30
2018-02-17T11:09:12.118Z,4.30
2018-02-17T11:10:14.663Z,4.30
2018-02-17T11:11:17.182Z,4.30
2018-02-17T11:12:19.679Z,4.40
2018-02-17T11:13:23.590Z,4.40
2018-02-17T11:14:26.082Z,4.40
2018-02-17T11:15:28.557Z,4.50
2018-02-17T11:16:32.025Z,4.50
2018-02-17T11:17:34.587Z,4.50
2018-02-17T11:18:37.553Z,4.50
2018-02-17T11:19:40.087Z,4.50
2018-02-17T11:20:42.653Z,4.50
2018-02-17T11:21:45.883Z,4.50
2018-02-17T11:22:49.118Z,4.50
2018-02-17T11:23:51.587Z,4.50
2018-02-17T11:24:54.203Z,4.50
2018-02-17T11:25:56.679Z,4.50
2018-02-17T11:26:59.196Z,4.50
2018-02-17T11:28:01.696Z,4.60
2018-02-17T11:29:04.189Z,4.60
2018-02-17T11:30:06.672Z,4.70
2018-02-17T11:31:09.158Z,4.70
2018-02-17T11:32:12.442Z,4.70
2018-02-17T11:33:14.918Z,4.70
2018-02-17T11:34:18.225Z,4.70
2018-02-17T11:35:20.739Z,4.70
2018-02-17T11:36:23.237Z,4.70
2018-02-17T11:37:25.706Z,4.70
2018-02-17T11:38:28.202Z,4.70
2018-02-17T11:39:30.684Z,4.70
2018-02-17T11:40:33.910Z,4.70
2018-02-17T11:41:37.922Z,4.70
2018-02-17T11:42:40.405Z,4.70
2018-02-17T11:43:43.640Z,4.60
2018-02-17T11:44:46.907Z,4.60
2018-02-17T11:45:49.425Z,4.60
2018-02-17T11:46:52.650Z,4.70
2018-02-17T11:47:55.907Z,4.70
2018-02-17T11:48:59.170Z,4.80
2018-02-17T11:50:01.631Z,4.80
2018-02-17T11:51:04.123Z,4.90
2018-02-17T11:52:06.613Z,4.90
2018-02-17T11:53:09.084Z,5.00
2018-02-17T11:54:11.673Z,5.10
2018-02-17T11:55:14.914Z,5.30
2018-02-17T11:56:18.164Z,5.30
2018-02-17T11:57:21.388Z,5.30
2018-02-17T11:58:24.662Z,5.40
2018-02-17T11:59:27.943Z,5.40
2018-02-17T12:00:30.547Z,5.40
2018-02-17T12:01:33.023Z,5.40
2018-02-17T12:02:35.530Z,5.40
2018-02-17T12:03:38.002Z,5.50
2018-02-17T12:04:41.028Z,5.60
2018-02-17T12:05:44.391Z,5.60
2018-02-17T12:06:46.934Z,5.60
2018-02-17T12:07:49.417Z,5.60
2018-02-17T12:08:52.641Z,5.60
2018-02-17T12:09:55.196Z,5.60
2018-02-17T12:10:58.480Z,5.60
2018-02-17T12:12:00.998Z,5.60
2018-02-17T12:13:03.494Z,5.50
2018-02-17T12:14:06.067Z,5.50
2018-02-17T12:15:08.519Z,5.60
2018-02-17T12:16:11.002Z,5.60
2018-02-17T12:17:13.880Z,5.60
2018-02-17T12:18:17.139Z,5.70
2018-02-17T12:19:20.366Z,5.80
2018-02-17T12:20:22.833Z,5.70
2018-02-17T12:21:25.312Z,5.80
2018-02-17T12:22:27.796Z,5.90
2018-02-17T12:23:30.266Z,5.90
2018-02-17T12:24:33.532Z,5.90
2018-02-17T12:25:36.015Z,5.90
2018-02-17T12:26:39.456Z,6.00
2018-02-17T12:27:41.918Z,6.10
2018-02-17T12:28:45.150Z,6.10
2018-02-17T12:29:48.415Z,6.10
2018-02-17T12:30:50.911Z,6.00
2018-02-17T12:31:53.374Z,6.00
2018-02-17T12:32:55.888Z,6.00
2018-02-17T12:33:58.394Z,6.00
2018-02-17T12:35:01.655Z,6.10
2018-02-17T12:36:04.887Z,6.20
2018-02-17T12:37:08.138Z,6.10
2018-02-17T12:38:10.638Z,6.00
2018-02-17T12:39:13.877Z,5.90
2018-02-17T12:40:16.342Z,5.90
2018-02-17T12:41:18.919Z,6.00
2018-02-17T12:42:22.174Z,6.00
2018-02-17T12:43:24.744Z,5.90
2018-02-17T12:44:27.264Z,5.90
2018-02-17T12:45:29.735Z,5.80
2018-02-17T12:46:32.239Z,5.80
2018-02-17T12:47:34.712Z,5.80
2018-02-17T12:48:37.982Z,5.80
2018-02-17T12:49:40.466Z,5.80
2018-02-17T12:50:42.967Z,5.90
2018-02-17T12:51:45.470Z,5.80
2018-02-17T12:52:47.960Z,5.80
2018-02-17T12:53:51.333Z,5.70
2018-02-17T12:54:53.814Z,5.70
2018-02-17T12:55:56.306Z,5.70
2018-02-17T12:56:59.508Z,5.70
2018-02-17T12:58:02.779Z,5.80
2018-02-17T12:59:05.239Z,5.80
2018-02-17T13:00:07.731Z,5.80
2018-02-17T13:01:10.236Z,5.90
2018-02-17T13:02:13.547Z,5.90
2018-02-17T13:03:17.089Z,5.90
2018-02-17T13:04:19.585Z,5.90
2018-02-17T13:05:22.078Z,6.00
2018-02-17T13:06:24.952Z,5.90
2018-02-17T13:07:27.470Z,5.90
2018-02-17T13:08:29.997Z,5.90
2018-02-17T13:09:32.505Z,5.90
2018-02-17T13:10:35.588Z,5.90
2018-02-17T13:11:38.087Z,5.90
2018-02-17T13:12:40.602Z,6.00
2018-02-17T13:13:43.237Z,6.00
2018-02-17T13:14:45.728Z,5.90
2018-02-17T13:15:48.244Z,6.00
2018-02-17T13:16:51.479Z,5.90
2018-02-17T13:17:54.714Z,5.90
2018-02-17T13:18:58.006Z,5.80
2018-02-17T13:20:00.636Z,5.80
2018-02-17T13:21:03.151Z,5.80
2018-02-17T13:22:05.625Z,5.80
2018-02-17T13:23:08.196Z,5.80
2018-02-17T13:24:10.686Z,5.80
2018-02-17T13:25:14.033Z,5.90
2018-02-17T13:26:17.688Z,5.90
2018-02-17T13:27:20.952Z,5.90
2018-02-17T13:28:25.185Z,5.90
2018-02-17T13:29:28.486Z,5.80
2018-02-17T13:30:31.028Z,5.80
2018-02-17T13:31:33.509Z,5.80
2018-02-17T13:32:36.768Z,5.80
2018-02-17T13:33:39.332Z,5.80
2018-02-17T13:34:41.824Z,5.80
2018-02-17T13:35:44.365Z,5.70
2018-02-17T13:36:46.941Z,5.70
2018-02-17T13:37:49.388Z,5.70
2018-02-17T13:38:51.969Z,5.80
2018-02-17T13:39:54.581Z,5.80
2018-02-17T13:40:57.101Z,5.70
2018-02-17T13:42:00.415Z,5.70
2018-02-17T13:43:03.184Z,5.70
2018-02-17T13:44:05.687Z,5.70
2018-02-17T13:45:08.271Z,5.70
2018-02-17T13:46:11.976Z,5.70
2018-02-17T13:47:14.475Z,5.70
2018-02-17T13:48:17.949Z,5.70
2018-02-17T13:49:20.431Z,5.60
2018-02-17T13:50:23.691Z,5.60
2018-02-17T13:51:26.264Z,5.60
2018-02-17T13:52:30.297Z,5.50
2018-02-17T13:53:32.877Z,5.50
2018-02-17T13:54:35.408Z,5.50
2018-02-17T13:55:38.694Z,5.40
2018-02-17T13:56:41.223Z,5.40
2018-02-17T13:57:44.076Z,5.30
2018-02-17T13:58:46.629Z,5.40
2018-02-17T13:59:49.901Z,5.40
2018-02-17T14:00:52.411Z,5.30